Time;durP1;ratioP1;P1;durP2;ratioP2;P2;SDS_P1;SDS_P2;PMS_P1;PMS_P2;Temp;Humidity;BMP_temperature;BMP_pressure;BME280_temperature;BME280_humidity;BME280_pressure;Samples;Min_cycle;Max_cycle;Signal;HPM_P1;HPM_P2
2021/08/15 00:01:23;;;;;;;1.50;1.00;;;18.70;98.20;;;;;;5007420;28;20502;-79
2021/08/15 00:03:51;;;;;;;1.50;0.90;;;18.70;98.20;;;;;;5023738;28;20467;-79
2021/08/15 00:06:18;;;;;;;1.50;0.90;;;18.70;98.20;;;;;;5009196;28;20524;-79
2021/08/15 00:08:46;;;;;;;1.50;0.90;;;18.60;98.20;;;;;;5023567;28;20974;-81
2021/08/15 00:11:13;;;;;;;1.50;1.00;;;18.60;98.20;;;;;;5016268;28;20487;-80
2021/08/15 00:13:40;;;;;;;1.50;0.90;;;18.60;98.20;;;;;;5034472;28;21032;-78
2021/08/15 00:16:07;;;;;;;1.50;0.90;;;18.50;98.20;;;;;;5013544;28;20971;-78
2021/08/15 00:18:35;;;;;;;1.50;1.00;;;18.50;98.20;;;;;;5025045;28;20459;-78
2021/08/15 00:21:02;;;;;;;1.50;0.97;;;18.50;98.20;;;;;;5019988;28;20475;-79
2021/08/15 00:23:28;;;;;;;1.50;0.90;;;18.40;98.20;;;;;;5024440;28;20466;-78
2021/08/15 00:25:56;;;;;;;1.50;0.90;;;18.40;98.20;;;;;;5018612;28;20489;-80
2021/08/15 00:28:23;;;;;;;1.50;0.90;;;18.40;98.20;;;;;;5022626;28;20459;-80
2021/08/15 00:30:50;;;;;;;1.50;0.90;;;18.40;98.20;;;;;;5014278;28;20487;-78
2021/08/15 00:33:17;;;;;;;1.50;1.00;;;18.40;98.20;;;;;;5024361;28;20478;-78
2021/08/15 00:35:44;;;;;;;1.50;0.90;;;18.30;98.20;;;;;;5023753;28;20460;-79
2021/08/15 00:38:10;;;;;;;1.50;1.00;;;18.30;98.20;;;;;;5001513;28;20475;-79
2021/08/15 00:40:37;;;;;;;1.50;0.93;;;18.30;98.20;;;;;;5031045;28;20471;-80
2021/08/15 00:43:06;;;;;;;1.70;1.30;;;18.20;98.20;;;;;;5013657;28;20544;-79
2021/08/15 00:45:33;;;;;;;1.50;1.00;;;18.20;98.20;;;;;;5016819;28;20452;-79
2021/08/15 00:48:08;;;;;;;1.50;0.90;;;18.10;98.20;;;;;;5010431;28;20875;-78
2021/08/15 00:50:35;;;;;;;1.50;1.00;;;18.20;98.20;;;;;;5025104;28;20550;-79
2021/08/15 00:53:01;;;;;;;1.50;0.90;;;18.20;98.20;;;;;;5012538;28;20475;-80
2021/08/15 00:55:28;;;;;;;1.50;1.00;;;18.20;98.20;;;;;;5027418;28;20479;-80
2021/08/15 00:57:56;;;;;;;1.50;1.00;;;18.20;98.20;;;;;;5013972;28;20479;-80
2021/08/15 01:00:25;;;;;;;1.57;1.00;;;18.20;98.20;;;;;;5033428;28;20471;-80
2021/08/15 01:02:52;;;;;;;1.53;1.10;;;18.10;98.20;;;;;;5013043;28;20485;-80
2021/08/15 01:05:19;;;;;;;1.50;0.90;;;18.10;98.20;;;;;;5021878;28;20463;-79
2021/08/15 01:07:49;;;;;;;1.50;0.90;;;18.10;98.20;;;;;;5011829;28;20621;-80
2021/08/15 01:10:17;;;;;;;1.50;1.00;;;18.10;98.20;;;;;;5032999;28;20475;-79
2021/08/15 01:12:44;;;;;;;1.50;1.00;;;18.10;98.20;;;;;;5013976;28;20480;-78
2021/08/15 01:15:11;;;;;;;1.50;1.00;;;18.10;98.20;;;;;;5033186;28;21009;-80
2021/08/15 01:17:40;;;;;;;1.50;0.90;;;18.00;98.20;;;;;;5015857;28;20484;-79
2021/08/15 01:20:09;;;;;;;1.50;1.00;;;18.00;98.20;;;;;;5024827;28;20490;-79
2021/08/15 01:22:37;;;;;;;1.50;1.00;;;18.00;98.20;;;;;;5018090;28;20876;-78
2021/08/15 01:25:06;;;;;;;1.50;1.00;;;17.90;98.20;;;;;;5031015;28;20455;-78
2021/08/15 01:27:37;;;;;;;1.57;1.00;;;17.90;98.20;;;;;;5019403;28;20543;-80
2021/08/15 01:30:07;;;;;;;1.50;1.00;;;17.90;98.20;;;;;;5021245;28;20471;-79
2021/08/15 01:32:35;;;;;;;1.50;1.00;;;17.90;98.20;;;;;;5015977;28;20484;-79
2021/08/15 01:35:02;;;;;;;1.50;1.00;;;17.90;98.20;;;;;;5022914;28;20487;-78
2021/08/15 01:37:29;;;;;;;1.50;0.90;;;17.90;98.20;;;;;;5011432;28;20922;-80
2021/08/15 01:40:01;;;;;;;1.50;1.00;;;17.90;98.20;;;;;;5024844;28;20460;-79
2021/08/15 01:42:28;;;;;;;1.50;1.00;;;17.90;98.20;;;;;;5008277;28;20479;-77
2021/08/15 01:44:54;;;;;;;1.50;1.00;;;17.90;98.20;;;;;;5019974;28;20772;-80
2021/08/15 01:47:23;;;;;;;1.53;1.00;;;17.90;98.20;;;;;;4999341;28;20479;-79
2021/08/15 01:49:49;;;;;;;1.50;0.90;;;17.90;98.20;;;;;;5026329;28;20459;-79
2021/08/15 01:52:16;;;;;;;1.50;1.00;;;17.80;98.20;;;;;;5012179;28;20750;-78
2021/08/15 01:54:43;;;;;;;1.50;1.00;;;17.90;98.20;;;;;;5028725;28;20486;-79
2021/08/15 01:57:09;;;;;;;1.50;1.00;;;17.80;98.20;;;;;;5022397;28;21031;-77
2021/08/15 01:59:36;;;;;;;1.50;0.90;;;17.80;98.20;;;;;;5019035;28;20472;-79
2021/08/15 02:02:03;;;;;;;4.27;2.13;;;17.80;98.20;;;;;;5007328;28;20914;-79
2021/08/15 02:04:32;;;;;;;1.50;1.00;;;17.80;98.20;;;;;;5028196;28;20463;-79
2021/08/15 02:06:58;;;;;;;1.50;1.00;;;17.80;98.20;;;;;;5016205;28;20484;-79
2021/08/15 02:09:25;;;;;;;1.50;0.90;;;17.70;98.20;;;;;;5017170;28;20468;-78
2021/08/15 02:11:52;;;;;;;1.50;0.90;;;17.70;98.20;;;;;;5008175;28;20475;-77
2021/08/15 02:14:19;;;;;;;1.50;1.00;;;17.70;98.20;;;;;;5022930;28;20498;-79
2021/08/15 02:16:45;;;;;;;1.50;1.00;;;17.70;98.20;;;;;;5021576;28;20479;-79
2021/08/15 02:19:12;;;;;;;1.50;1.00;;;17.70;98.20;;;;;;5021242;28;20475;-78
2021/08/15 02:21:40;;;;;;;1.53;1.00;;;17.70;98.20;;;;;;5006208;28;21027;-80
2021/08/15 02:24:07;;;;;;;1.50;1.00;;;17.70;98.20;;;;;;5016890;28;20466;-80
2021/08/15 02:26:34;;;;;;;1.50;0.93;;;17.70;98.20;;;;;;5004786;28;20502;-79
2021/08/15 02:29:01;;;;;;;1.50;0.90;;;17.70;98.20;;;;;;5023229;28;20986;-78
2021/08/15 02:31:27;;;;;;;1.50;1.00;;;17.60;98.20;;;;;;5006986;28;20511;-79
2021/08/15 02:33:54;;;;;;;1.50;1.00;;;17.60;98.20;;;;;;5024555;28;20474;-80
2021/08/15 02:36:21;;;;;;;1.50;0.90;;;17.50;98.20;;;;;;5016908;28;20510;-81
2021/08/15 02:38:49;;;;;;;1.50;1.00;;;17.50;98.20;;;;;;5026587;28;20459;-80
2021/08/15 02:41:15;;;;;;;1.50;1.00;;;17.40;98.20;;;;;;5013532;28;20487;-80
2021/08/15 02:43:42;;;;;;;1.50;1.00;;;17.40;98.20;;;;;;5025902;28;20459;-80
2021/08/15 02:46:09;;;;;;;1.50;1.00;;;17.40;98.20;;;;;;5023228;28;20497;-79
2021/08/15 02:48:37;;;;;;;1.50;0.90;;;17.40;98.20;;;;;;5025193;28;20451;-79
2021/08/15 02:51:04;;;;;;;1.50;1.00;;;17.40;98.20;;;;;;5008942;28;20476;-80
2021/08/15 02:53:31;;;;;;;1.50;0.90;;;17.40;98.20;;;;;;5024400;28;21034;-80
2021/08/15 02:55:59;;;;;;;1.50;0.97;;;17.40;98.20;;;;;;5008099;28;20484;-80
2021/08/15 02:58:26;;;;;;;1.50;0.90;;;17.40;98.20;;;;;;5024931;28;20475;-80
2021/08/15 03:00:54;;;;;;;1.50;0.90;;;17.40;98.20;;;;;;5012584;28;20480;-79
2021/08/15 03:03:21;;;;;;;1.50;0.97;;;17.50;98.20;;;;;;5024885;28;20604;-81
2021/08/15 03:05:48;;;;;;;1.50;1.00;;;17.50;98.20;;;;;;5015018;28;20455;-80
2021/08/15 03:08:14;;;;;;;1.50;0.93;;;17.50;98.20;;;;;;5024575;28;20464;-79
2021/08/15 03:10:41;;;;;;;1.50;1.00;;;17.50;98.20;;;;;;5018496;28;20475;-79
2021/08/15 03:13:09;;;;;;;1.57;1.00;;;17.50;98.20;;;;;;5012565;28;20483;-79
2021/08/15 03:15:38;;;;;;;1.50;1.00;;;17.50;98.20;;;;;;5031735;28;20924;-80
2021/08/15 03:18:05;;;;;;;1.50;1.00;;;17.50;98.20;;;;;;5011396;28;20491;-80
2021/08/15 03:20:31;;;;;;;4.37;2.70;;;17.50;98.20;;;;;;5036244;28;20475;-78
2021/08/15 03:22:58;;;;;;;1.50;0.90;;;17.50;98.20;;;;;;5013796;28;20475;-80
2021/08/15 03:25:25;;;;;;;1.50;1.00;;;17.50;98.20;;;;;;5034396;28;20459;-80
2021/08/15 03:27:52;;;;;;;1.50;0.90;;;17.50;98.20;;;;;;5019834;28;20475;-78
2021/08/15 03:30:20;;;;;;;1.50;1.00;;;17.50;98.20;;;;;;5020442;28;20479;-80
2021/08/15 03:32:47;;;;;;;1.50;0.90;;;17.50;98.20;;;;;;5010182;28;20494;-80
2021/08/15 03:35:13;;;;;;;1.50;1.00;;;17.50;98.20;;;;;;5021740;28;20494;-79
2021/08/15 03:37:40;;;;;;;1.50;1.00;;;17.50;98.20;;;;;;5012160;28;20483;-78
2021/08/15 03:40:08;;;;;;;1.50;1.00;;;17.50;98.20;;;;;;5019603;28;20452;-80
2021/08/15 03:42:35;;;;;;;1.50;0.97;;;17.40;98.20;;;;;;5008994;28;20483;-80
2021/08/15 03:45:02;;;;;;;1.50;1.00;;;17.50;98.20;;;;;;5031885;28;20478;-80
2021/08/15 03:47:31;;;;;;;1.50;0.90;;;17.40;98.20;;;;;;5015876;28;20535;-79
2021/08/15 03:49:59;;;;;;;1.50;1.00;;;17.40;98.20;;;;;;5022091;28;20467;-80
2021/08/15 03:52:25;;;;;;;1.50;1.00;;;17.40;98.20;;;;;;5012657;28;20498;-78
2021/08/15 03:54:52;;;;;;;1.50;1.00;;;17.40;98.20;;;;;;5034761;28;20475;-79
2021/08/15 03:57:19;;;;;;;1.50;1.00;;;17.40;98.20;;;;;;5003588;28;20511;-79
2021/08/15 03:59:46;;;;;;;1.50;0.90;;;17.40;98.20;;;;;;5022114;28;20470;-80
2021/08/15 04:02:12;;;;;;;1.50;1.00;;;17.40;98.20;;;;;;5009233;28;20498;-79
2021/08/15 04:04:41;;;;;;;1.50;1.00;;;17.40;98.20;;;;;;5025738;28;20460;-80
2021/08/15 04:07:07;;;;;;;1.50;0.90;;;17.40;98.20;;;;;;5015757;28;20473;-77
2021/08/15 04:09:34;;;;;;;1.50;1.00;;;17.40;98.20;;;;;;5027175;28;20486;-79
2021/08/15 04:12:01;;;;;;;1.50;1.00;;;17.30;98.20;;;;;;5018585;28;21013;-80
2021/08/15 04:14:27;;;;;;;1.93;1.53;;;17.30;98.20;;;;;;5026631;28;20467;-79
2021/08/15 04:16:54;;;;;;;1.50;1.00;;;17.30;98.20;;;;;;5018119;28;20482;-78
2021/08/15 04:19:21;;;;;;;1.50;0.97;;;17.30;98.20;;;;;;5024429;28;20856;-80
2021/08/15 04:21:49;;;;;;;1.50;1.00;;;17.30;98.20;;;;;;5019653;28;20542;-80
2021/08/15 04:24:16;;;;;;;1.50;1.00;;;17.30;98.20;;;;;;5025967;28;20462;-80
2021/08/15 04:26:44;;;;;;;1.50;1.00;;;17.30;98.20;;;;;;5022844;28;20486;-79
2021/08/15 04:29:13;;;;;;;1.50;0.90;;;17.30;98.20;;;;;;5026115;28;20467;-79
2021/08/15 04:31:39;;;;;;;1.50;0.93;;;17.30;98.20;;;;;;5022436;28;20487;-80
2021/08/15 04:34:06;;;;;;;1.50;1.00;;;17.30;98.20;;;;;;5025046;28;20467;-79
2021/08/15 04:36:33;;;;;;;1.50;0.90;;;17.30;98.20;;;;;;5018494;28;20607;-79
2021/08/15 04:39:02;;;;;;;1.50;0.90;;;17.30;98.20;;;;;;5027040;28;20459;-80
2021/08/15 04:41:28;;;;;;;1.50;0.90;;;17.30;98.20;;;;;;5015387;28;20602;-80
2021/08/15 04:43:55;;;;;;;1.50;0.90;;;17.20;98.20;;;;;;5024580;28;20611;-80
2021/08/15 04:46:22;;;;;;;1.50;1.00;;;17.20;98.20;;;;;;5007861;28;20495;-80
2021/08/15 04:48:49;;;;;;;1.50;0.90;;;17.20;98.20;;;;;;5026374;28;20971;-80
2021/08/15 04:51:15;;;;;;;1.50;0.90;;;17.20;98.20;;;;;;5009276;28;20487;-78
2021/08/15 04:53:42;;;;;;;1.50;0.93;;;17.20;98.20;;;;;;5024837;28;20449;-82
2021/08/15 04:56:10;;;;;;;1.50;0.90;;;17.20;98.20;;;;;;5018248;28;20519;-82
2021/08/15 04:58:37;;;;;;;1.50;1.00;;;17.30;98.20;;;;;;5026324;28;20456;-80
2021/08/15 05:01:04;;;;;;;1.50;1.00;;;17.30;98.20;;;;;;5025829;28;20570;-80
2021/08/15 05:03:31;;;;;;;1.50;1.00;;;17.30;98.20;;;;;;5019305;28;20460;-84
2021/08/15 05:05:57;;;;;;;1.50;0.97;;;17.40;98.20;;;;;;5019685;28;20956;-81
2021/08/15 05:08:24;;;;;;;1.50;1.00;;;17.40;98.20;;;;;;5024158;28;20468;-82
2021/08/15 05:10:51;;;;;;;1.50;1.00;;;17.40;98.20;;;;;;5024521;28;20510;-82
2021/08/15 05:13:19;;;;;;;1.50;1.00;;;17.40;98.20;;;;;;5021929;28;20526;-80
2021/08/15 05:15:46;;;;;;;1.50;1.00;;;17.50;98.20;;;;;;5027987;28;20491;-78
2021/08/15 05:18:14;;;;;;;1.53;1.00;;;17.50;98.20;;;;;;5029709;28;20988;-80
2021/08/15 05:20:41;;;;;;;1.50;0.90;;;17.50;98.20;;;;;;5024104;28;20894;-80
2021/08/15 05:23:08;;;;;;;1.50;1.00;;;17.60;98.20;;;;;;5007665;28;20572;-80
2021/08/15 05:25:35;;;;;;;1.50;1.00;;;17.70;98.20;;;;;;5018199;28;20773;-81
2021/08/15 05:28:01;;;;;;;1.50;0.90;;;17.70;98.20;;;;;;5011309;28;20483;-79
2021/08/15 05:30:30;;;;;;;1.50;1.00;;;17.80;98.20;;;;;;5026408;28;20498;-80
2021/08/15 05:32:56;;;;;;;1.50;0.90;;;17.90;98.20;;;;;;5014500;28;20484;-79
2021/08/15 05:35:23;;;;;;;1.50;1.00;;;18.00;98.20;;;;;;5020669;28;20494;-80
2021/08/15 05:37:50;;;;;;;1.50;0.90;;;18.10;98.20;;;;;;5011203;28;20487;-80
2021/08/15 05:40:17;;;;;;;1.50;1.00;;;18.10;98.20;;;;;;5020703;28;20479;-80
2021/08/15 05:42:45;;;;;;;1.50;0.90;;;18.20;98.20;;;;;;5009365;28;20484;-80
2021/08/15 05:45:12;;;;;;;1.50;0.90;;;18.30;98.20;;;;;;5019264;28;20460;-80
2021/08/15 05:47:40;;;;;;;1.57;1.00;;;18.40;98.20;;;;;;5010135;28;20476;-80
2021/08/15 05:50:09;;;;;;;1.50;1.00;;;18.50;98.20;;;;;;5029033;28;20466;-79
2021/08/15 05:52:37;;;;;;;1.50;0.90;;;18.60;98.20;;;;;;5011303;28;20797;-80
2021/08/15 05:55:04;;;;;;;1.50;1.00;;;18.70;98.20;;;;;;5020648;28;20823;-80
2021/08/15 05:57:31;;;;;;;1.53;1.00;;;18.80;98.20;;;;;;5010249;28;21141;-80
2021/08/15 05:59:58;;;;;;;1.57;1.00;;;19.00;98.20;;;;;;5018645;28;20452;-81
2021/08/15 06:02:25;;;;;;;1.57;0.93;;;19.10;98.20;;;;;;5007357;28;20900;-78
2021/08/15 06:04:53;;;;;;;1.50;0.90;;;19.30;98.20;;;;;;5015562;28;20517;-79
2021/08/15 06:07:19;;;;;;;1.50;1.00;;;19.50;98.20;;;;;;5008193;28;20823;-79
2021/08/15 06:09:46;;;;;;;1.50;0.90;;;19.70;98.20;;;;;;5011578;28;20456;-80
2021/08/15 06:12:13;;;;;;;1.50;0.97;;;19.80;98.20;;;;;;5008326;28;20486;-80
2021/08/15 06:14:40;;;;;;;1.50;0.90;;;19.90;98.20;;;;;;5025119;28;20462;-80
2021/08/15 06:17:06;;;;;;;1.50;0.93;;;20.00;98.20;;;;;;5015944;28;20483;-78
2021/08/15 06:19:34;;;;;;;1.50;1.00;;;20.10;98.20;;;;;;5025581;28;20482;-80
2021/08/15 06:22:02;;;;;;;1.50;0.90;;;20.20;98.20;;;;;;5018779;28;20487;-80
2021/08/15 06:24:29;;;;;;;1.50;0.90;;;20.30;98.20;;;;;;5028178;28;20460;-79
2021/08/15 06:26:56;;;;;;;1.50;0.90;;;20.50;98.20;;;;;;5014383;28;20491;-81
2021/08/15 06:29:23;;;;;;;1.57;1.07;;;20.70;98.20;;;;;;5021873;28;20841;-80
2021/08/15 06:31:50;;;;;;;1.50;1.00;;;20.80;97.70;;;;;;5014105;28;20491;-83
2021/08/15 06:34:16;;;;;;;1.50;0.90;;;20.90;96.80;;;;;;5022637;28;20823;-81
2021/08/15 06:36:43;;;;;;;1.50;0.93;;;21.00;97.20;;;;;;5013879;28;21008;-82
2021/08/15 06:39:11;;;;;;;1.50;0.90;;;21.00;97.10;;;;;;5024959;28;20455;-82
2021/08/15 06:41:38;;;;;;;1.50;0.90;;;21.10;96.90;;;;;;5009548;28;20475;-82
2021/08/15 06:44:05;;;;;;;1.50;0.90;;;21.10;97.10;;;;;;5019741;28;20848;-81
2021/08/15 06:46:32;;;;;;;1.50;0.90;;;21.10;96.80;;;;;;5009506;28;20479;-83
2021/08/15 06:48:59;;;;;;;1.50;1.10;;;21.10;96.60;;;;;;5020333;28;20466;-83
2021/08/15 06:51:26;;;;;;;1.57;1.07;;;21.10;96.80;;;;;;5005936;28;20494;-82
2021/08/15 06:53:56;;;;;;;1.50;0.90;;;21.30;96.40;;;;;;5018587;28;20788;-82
2021/08/15 06:56:24;;;;;;;1.50;0.90;;;21.40;95.30;;;;;;5014466;28;20485;-82
2021/08/15 06:58:51;;;;;;;1.50;0.90;;;21.50;95.20;;;;;;5018873;28;20459;-82
2021/08/15 07:01:17;;;;;;;1.50;0.90;;;21.70;96.00;;;;;;5015823;28;20582;-82
2021/08/15 07:03:44;;;;;;;1.50;0.90;;;21.90;94.40;;;;;;5020349;28;20903;-80
2021/08/15 07:06:11;;;;;;;1.50;0.90;;;22.10;93.90;;;;;;5010382;28;20472;-81
2021/08/15 07:08:41;;;;;;;1.50;0.90;;;22.30;94.10;;;;;;5026570;28;20464;-82
2021/08/15 07:11:08;;;;;;;1.50;0.90;;;22.50;92.90;;;;;;5007019;28;20491;-80
2021/08/15 07:13:36;;;;;;;1.50;0.90;;;22.70;92.80;;;;;;5020517;28;20448;-82
2021/08/15 07:16:04;;;;;;;1.50;0.90;;;23.00;92.10;;;;;;5003403;28;20496;-83
2021/08/15 07:18:31;;;;;;;1.50;0.90;;;23.00;91.60;;;;;;5024160;28;20457;-82
2021/08/15 07:21:00;;;;;;;1.53;0.90;;;23.00;91.60;;;;;;5016624;28;20856;-81
2021/08/15 07:23:27;;;;;;;1.50;0.90;;;23.00;91.70;;;;;;5020973;28;20455;-82
2021/08/15 07:25:56;;;;;;;1.50;0.90;;;23.20;91.60;;;;;;5018523;28;20474;-81
2021/08/15 07:28:23;;;;;;;1.50;0.90;;;23.30;91.80;;;;;;5020480;28;20460;-80
2021/08/15 07:30:51;;;;;;;1.50;0.90;;;23.60;91.70;;;;;;5007088;28;20491;-82
2021/08/15 07:33:19;;;;;;;1.50;0.90;;;23.70;89.30;;;;;;5026703;28;20715;-83
2021/08/15 07:35:46;;;;;;;1.50;0.90;;;23.70;89.90;;;;;;5023609;28;20483;-82
2021/08/15 07:38:12;;;;;;;1.50;1.00;;;23.80;90.70;;;;;;5018955;28;20962;-83
2021/08/15 07:40:39;;;;;;;1.50;0.90;;;24.00;90.00;;;;;;5014297;28;20483;-83
2021/08/15 07:43:06;;;;;;;1.50;0.90;;;24.20;89.30;;;;;;5013696;28;20483;-82
2021/08/15 07:45:34;;;;;;;1.50;0.90;;;24.50;87.40;;;;;;5018287;28;20456;-82
2021/08/15 07:48:03;;;;;;;1.50;0.90;;;24.80;87.00;;;;;;5007208;28;20483;-83
2021/08/15 07:50:35;;;;;;;1.50;0.90;;;25.00;86.10;;;;;;5024261;28;20475;-82
2021/08/15 07:53:15;;;;;;;1.50;0.90;;;25.10;86.10;;;;;;5014966;28;20957;-81
2021/08/15 07:55:42;;;;;;;1.50;0.90;;;25.10;86.10;;;;;;5013871;28;20901;-80
2021/08/15 07:58:08;;;;;;;1.50;0.90;;;25.20;85.90;;;;;;5009104;28;20479;-82
2021/08/15 08:00:35;;;;;;;1.50;0.90;;;25.30;85.20;;;;;;5040427;23;20472;-79
2021/08/15 08:03:04;;;;;;;1.50;0.87;;;25.40;85.30;;;;;;4986176;28;20481;-79
2021/08/15 08:05:31;;;;;;;1.60;1.00;;;25.60;85.60;;;;;;5012932;28;20460;-78
2021/08/15 08:07:58;;;;;;;1.60;1.10;;;25.60;85.00;;;;;;5019214;28;20475;-79
2021/08/15 08:10:25;;;;;;;1.50;0.90;;;25.80;85.20;;;;;;5017653;28;20464;-78
2021/08/15 08:12:52;;;;;;;1.50;0.87;;;25.80;85.00;;;;;;5009813;28;20480;-78
2021/08/15 08:15:19;;;;;;;1.50;0.90;;;25.90;85.20;;;;;;5019736;28;20464;-80
2021/08/15 08:17:46;;;;;;;1.57;0.90;;;26.00;84.30;;;;;;5010662;28;20582;-77
2021/08/15 08:20:16;;;;;;;1.53;0.90;;;26.20;84.10;;;;;;5020764;28;20462;-77
2021/08/15 08:22:43;;;;;;;1.50;0.80;;;26.30;84.00;;;;;;5005371;28;20479;-79
2021/08/15 08:25:10;;;;;;;1.50;0.80;;;26.50;83.60;;;;;;5021526;28;20451;-79
2021/08/15 08:27:37;;;;;;;1.50;0.87;;;26.70;83.60;;;;;;5010739;28;20790;-78
2021/08/15 08:30:05;;;;;;;1.50;0.90;;;26.90;82.40;;;;;;5018866;28;20459;-79
2021/08/15 08:32:34;;;;;;;1.53;0.80;;;26.90;82.40;;;;;;5008133;28;20558;-79
2021/08/15 08:35:00;;;;;;;1.50;0.87;;;27.10;82.50;;;;;;5017060;28;21147;-78
2021/08/15 08:37:28;;;;;;;1.50;0.80;;;27.30;81.90;;;;;;5005693;28;20483;-77
2021/08/15 08:39:59;;;;;;;1.50;0.80;;;27.50;80.90;;;;;;5006141;28;20487;-77
2021/08/15 08:42:27;;;;;;;1.50;0.90;;;27.80;80.60;;;;;;5002514;28;20992;-77
2021/08/15 08:44:56;;;;;;;1.50;0.90;;;28.10;78.80;;;;;;5006005;28;20479;-78
2021/08/15 08:47:23;;;;;;;1.50;0.80;;;28.20;78.90;;;;;;4999936;28;21085;-80
2021/08/15 08:49:50;;;;;;;1.50;0.87;;;28.30;78.50;;;;;;5018948;28;20456;-81
2021/08/15 08:52:17;;;;;;;1.50;0.80;;;28.40;78.60;;;;;;5011685;28;20501;-79
2021/08/15 08:54:45;;;;;;;1.50;0.80;;;28.40;78.00;;;;;;5010159;28;20468;-80
2021/08/15 08:57:12;;;;;;;1.50;0.80;;;28.30;78.90;;;;;;5000280;28;20861;-79
2021/08/15 08:59:39;;;;;;;1.50;0.80;;;28.30;79.00;;;;;;5018497;28;20456;-80
2021/08/15 09:02:06;;;;;;;1.50;0.90;;;28.40;78.70;;;;;;5016624;28;20487;-82
2021/08/15 09:04:33;;;;;;;1.50;0.90;;;28.40;78.30;;;;;;5022488;28;20766;-82
2021/08/15 09:07:10;;;;;;;1.47;0.80;;;28.40;78.10;;;;;;5013637;28;20476;-80
2021/08/15 09:09:37;;;;;;;1.47;0.80;;;28.30;78.10;;;;;;5012880;28;20510;-81
2021/08/15 09:12:07;;;;;;;1.50;0.80;;;28.20;78.40;;;;;;5002144;28;20894;-82
2021/08/15 09:14:34;;;;;;;1.47;0.83;;;28.10;78.40;;;;;;5004316;28;20463;-81
2021/08/15 09:17:02;;;;;;;1.43;0.83;;;28.00;78.80;;;;;;5003331;28;20483;-82
2021/08/15 09:19:32;;;;;;;1.50;0.80;;;28.00;79.10;;;;;;5011956;28;20476;-80
2021/08/15 09:22:14;;;;;;;1.50;0.80;;;28.00;78.70;;;;;;5004096;28;20487;-81
2021/08/15 09:24:54;;;;;;;1.50;0.80;;;28.00;78.50;;;;;;5012999;28;20460;-80
2021/08/15 09:27:27;;;;;;;1.50;0.90;;;28.00;79.10;;;;;;5003939;28;20487;-81
2021/08/15 09:30:19;;;;;;;1.47;0.80;;;28.00;78.60;;;;;;5016898;28;20470;-82
2021/08/15 09:32:50;;;;;;;1.50;0.90;;;28.00;78.90;;;;;;5011769;28;20485;-83
2021/08/15 09:35:22;;;;;;;1.47;0.80;;;28.00;78.70;;;;;;5018850;28;20523;-79
2021/08/15 09:37:59;;;;;;;1.47;0.80;;;28.10;78.90;;;;;;5009513;28;20480;-79
2021/08/15 09:40:29;;;;;;;1.47;0.90;;;28.20;78.90;;;;;;5019903;28;20645;-82
2021/08/15 09:42:58;;;;;;;1.50;0.90;;;28.40;78.60;;;;;;5010175;28;21088;-80
2021/08/15 09:45:44;;;;;;;1.47;0.80;;;28.40;78.30;;;;;;5019511;28;20458;-80
2021/08/15 09:48:24;;;;;;;1.50;0.80;;;28.40;78.50;;;;;;5006533;28;20555;-82
2021/08/15 09:51:11;;;;;;;1.47;0.80;;;28.30;78.40;;;;;;5007943;28;20479;-81
2021/08/15 09:53:39;;;;;;;1.70;1.37;;;28.20;78.00;;;;;;5021742;28;20459;-83
2021/08/15 09:56:06;;;;;;;1.50;0.90;;;28.10;79.30;;;;;;5010504;28;20539;-81
2021/08/15 09:58:35;;;;;;;1.50;0.90;;;28.00;79.20;;;;;;5019490;28;20484;-82
2021/08/15 10:01:04;;;;;;;1.47;0.80;;;28.10;79.10;;;;;;5008866;28;20497;-81
2021/08/15 10:03:32;;;;;;;1.50;0.87;;;28.10;79.50;;;;;;5015142;28;20463;-82
2021/08/15 10:05:59;;;;;;;1.50;0.90;;;28.00;79.20;;;;;;5008359;28;20452;-83
2021/08/15 10:08:26;;;;;;;1.47;0.80;;;28.00;80.10;;;;;;5018892;28;20456;-80
2021/08/15 10:10:53;;;;;;;1.50;0.80;;;28.00;79.40;;;;;;5011315;28;20885;-82
2021/08/15 10:13:20;;;;;;;1.43;0.80;;;28.20;79.10;;;;;;5019374;28;20455;-82
2021/08/15 10:15:57;;;;;;;1.50;0.90;;;28.30;79.20;;;;;;5015117;28;20475;-80
2021/08/15 10:18:26;;;;;;;1.50;0.90;;;28.40;78.50;;;;;;5019773;28;20487;-82
2021/08/15 10:21:01;;;;;;;1.50;0.90;;;28.40;77.90;;;;;;5005686;28;20505;-78
2021/08/15 10:23:49;;;;;;;1.50;0.80;;;28.50;77.00;;;;;;5012563;28;20548;-79
2021/08/15 10:26:45;;;;;;;1.50;0.80;;;28.60;78.00;;;;;;4999840;28;20491;-82
2021/08/15 10:29:36;;;;;;;1.50;0.80;;;28.90;76.70;;;;;;5016616;28;20477;-80
2021/08/15 10:32:21;;;;;;;1.47;0.80;;;29.10;75.90;;;;;;5012465;28;20562;-84
2021/08/15 10:35:16;;;;;;;1.50;0.90;;;29.40;75.30;;;;;;5011648;28;20510;-80
2021/08/15 10:37:44;;;;;;;1.47;0.80;;;29.70;75.80;;;;;;5003875;28;20495;-80
2021/08/15 10:40:56;;;;;;;1.50;0.90;;;29.90;75.20;;;;;;5019824;28;20859;-79
2021/08/15 10:44:06;;;;;;;1.50;0.83;;;30.10;73.50;;;;;;4990635;28;20476;-81
2021/08/15 10:46:32;;;;;;;1.50;0.80;;;30.20;73.20;;;;;;5008516;28;20851;-80
2021/08/15 10:49:02;;;;;;;1.47;0.80;;;30.50;71.50;;;;;;5017694;28;20458;-83
2021/08/15 10:51:49;;;;;;;1.50;0.80;;;30.70;70.40;;;;;;5004469;28;20498;-81
2021/08/15 10:55:06;;;;;;;1.47;0.80;;;30.80;69.20;;;;;;5020871;28;20559;-80
2021/08/15 10:57:52;;;;;;;1.47;0.80;;;30.80;70.20;;;;;;5008261;28;20481;-80
2021/08/15 11:00:45;;;;;;;1.50;0.80;;;30.80;69.10;;;;;;5013760;28;20483;-80
2021/08/15 11:03:50;;;;;;;1.50;0.80;;;31.10;68.10;;;;;;4980181;28;20475;-78
2021/08/15 11:06:47;;;;;;;1.47;0.80;;;31.20;67.80;;;;;;5001505;28;20486;-83
2021/08/15 11:09:14;;;;;;;1.50;0.90;;;31.50;68.10;;;;;;5015931;28;20463;-80
2021/08/15 11:12:07;;;;;;;1.47;0.80;;;31.70;68.60;;;;;;5004987;28;20539;-80
2021/08/15 11:14:34;;;;;;;1.47;0.80;;;31.70;66.20;;;;;;5010947;28;20204;-82
2021/08/15 11:17:15;;;;;;;1.47;0.80;;;31.80;66.90;;;;;;5002291;28;20476;-79
2021/08/15 11:19:42;;;;;;;1.47;0.80;;;32.00;65.20;;;;;;5006182;28;20204;-80
2021/08/15 11:22:20;;;;;;;1.50;1.00;;;32.10;65.80;;;;;;5000401;28;20636;-82
2021/08/15 11:24:53;;;;;;;1.47;0.80;;;32.30;65.60;;;;;;5008304;28;20205;-82
2021/08/15 11:27:27;;;;;;;1.47;0.90;;;32.30;65.80;;;;;;4996502;28;20239;-79
2021/08/15 11:29:54;;;;;;;1.43;0.80;;;32.50;65.60;;;;;;5009921;28;20425;-78
2021/08/15 11:32:23;;;;;;;1.50;0.80;;;32.60;64.70;;;;;;4998946;28;20232;-80
2021/08/15 11:34:51;;;;;;;1.47;0.80;;;32.80;64.40;;;;;;5013199;28;20214;-81
2021/08/15 11:37:21;;;;;;;1.47;0.80;;;33.00;65.30;;;;;;5002623;28;20247;-82
2021/08/15 11:39:48;;;;;;;1.48;0.80;;;33.20;63.60;;;;;;5014957;28;20205;-82
2021/08/15 11:42:19;;;;;;;1.45;0.80;;;33.40;62.30;;;;;;5004247;28;20236;-81
2021/08/15 11:44:55;;;;;;;1.45;0.80;;;33.50;61.40;;;;;;5013579;28;20201;-82
2021/08/15 11:47:24;;;;;;;1.50;0.90;;;33.30;62.30;;;;;;5001162;28;20601;-81
2021/08/15 11:49:52;;;;;;;1.50;0.80;;;33.30;63.20;;;;;;5013419;28;20201;-78
2021/08/15 11:52:22;;;;;;;1.45;0.80;;;33.30;63.70;;;;;;5001208;28;20722;-82
2021/08/15 11:54:51;;;;;;;1.40;0.80;;;33.30;62.80;;;;;;5014257;28;20205;-82
2021/08/15 11:57:18;;;;;;;1.47;0.80;;;33.20;61.20;;;;;;5002329;28;20240;-81
2021/08/15 11:59:46;;;;;;;1.50;0.90;;;32.90;62.90;;;;;;5009693;28;20215;-82
2021/08/15 12:02:18;;;;;;;1.50;0.80;;;32.70;62.90;;;;;;4999916;28;20537;-82
2021/08/15 12:04:47;;;;;;;1.47;0.80;;;32.60;64.30;;;;;;5010775;28;20299;-80
2021/08/15 12:07:21;;;;;;;1.43;0.80;;;32.60;64.20;;;;;;4999709;28;20255;-80
2021/08/15 12:09:49;;;;;;;1.47;0.80;;;32.50;64.90;;;;;;5009801;28;20205;-81
2021/08/15 12:12:15;;;;;;;1.47;0.80;;;32.50;64.30;;;;;;5000676;28;20246;-80
2021/08/15 12:14:42;;;;;;;1.50;0.80;;;32.40;65.30;;;;;;5014659;28;20205;-82
2021/08/15 12:17:09;;;;;;;1.40;0.80;;;32.40;64.70;;;;;;4998785;28;20784;-81
2021/08/15 12:19:37;;;;;;;1.43;0.80;;;32.50;66.10;;;;;;5010437;28;20331;-83
2021/08/15 12:22:17;;;;;;;1.47;0.80;;;32.70;64.90;;;;;;4998903;28;20236;-79
2021/08/15 12:24:47;;;;;;;1.40;0.80;;;32.80;63.20;;;;;;4998397;28;20251;-81
2021/08/15 12:27:14;;;;;;;1.50;0.80;;;32.80;63.70;;;;;;4991487;28;20399;-81
2021/08/15 12:29:43;;;;;;;1.43;0.80;;;32.90;64.20;;;;;;5009423;28;20275;-82
2021/08/15 12:32:12;;;;;;;1.47;0.93;;;32.90;64.10;;;;;;4999531;28;20499;-79
2021/08/15 12:34:41;;;;;;;1.47;0.80;;;32.90;64.10;;;;;;5010806;28;20668;-83
2021/08/15 12:37:13;;;;;;;1.43;0.80;;;32.80;63.70;;;;;;5000195;28;20243;-79
2021/08/15 12:39:43;;;;;;;1.43;0.80;;;32.80;64.20;;;;;;5011713;28;20205;-79
2021/08/15 12:42:16;;;;;;;1.47;0.80;;;32.80;65.30;;;;;;4998377;28;20221;-81
2021/08/15 12:44:48;;;;;;;1.43;0.80;;;32.80;64.10;;;;;;5010937;28;20215;-80
2021/08/15 12:47:15;;;;;;;1.40;0.80;;;32.80;64.20;;;;;;4998218;28;20229;-84
2021/08/15 12:49:44;;;;;;;1.47;0.80;;;32.80;63.50;;;;;;5006988;28;20220;-79
2021/08/15 12:52:21;;;;;;;1.50;1.07;;;32.90;63.00;;;;;;5012174;28;20706;-84
2021/08/15 12:55:17;;;;;;;1.47;0.90;;;33.00;62.60;;;;;;5014422;28;20239;-83
2021/08/15 12:57:50;;;;;;;1.43;0.90;;;33.20;62.10;;;;;;5003498;28;20225;-82
2021/08/15 13:00:17;;;;;;;1.47;0.80;;;33.10;62.30;;;;;;5007981;28;20280;-81